La Puente, California
Current Conditions -  °F | °C
As of 4:53 AM on Tuesday 21 Oct 2014 (Local Time) from KFUL Reporting Station
Overcast Overcast  
Wind Chill: 67°   Ceiling: 1500
Heat Index: 67°   Visibility: 10mi
Dew Point: 60°   Wind: 0mph
Humidity: 79%   Direction: NA
Pressure: 29.89"   Gusts: NA
Location:  34.02°N, 117.95°W
Report Text: KFUL 211153Z 00000KT 10SM OVC015 19/16 A2989 RMK AO2 SLP120 T01940156 10194 20183 55003 $
Loading
Personal Weather Stations






























Interactive Weather Map
Tropical Storm Tracking
New forecast layout! Learn more

10-Day Weather Forecast

Advertisements
Track Severe Weather on mobile